Time;durP1;ratioP1;P1;durP2;ratioP2;P2;SDS_P1;SDS_P2;PMS_P1;PMS_P2;Temp;Humidity;BMP_temperature;BMP_pressure;BME280_temperature;BME280_humidity;BME280_pressure;Samples;Min_cycle;Max_cycle;Signal;HPM_P1;HPM_P2
2022/09/12 00:01:18;;;;;;;13.38;9.85;;;16.30;99.90;;;;;;5164678;27;20034;-70
2022/09/12 00:03:45;;;;;;;10.73;9.63;;;16.20;99.90;;;;;;5161497;27;20129;-70
2022/09/12 00:06:20;;;;;;;9.63;8.63;;;16.20;99.90;;;;;;5150012;27;20031;-70
2022/09/12 00:08:46;;;;;;;12.15;10.05;;;16.20;99.90;;;;;;5160886;27;20050;-70
2022/09/12 00:11:12;;;;;;;11.38;10.20;;;16.80;99.90;;;;;;5149637;27;20111;-70
2022/09/12 00:13:40;;;;;;;11.73;9.73;;;16.50;99.90;;;;;;5156965;27;20053;-70
2022/09/12 00:16:06;;;;;;;11.13;10.02;;;16.20;99.90;;;;;;5157480;27;20046;-70
2022/09/12 00:18:32;;;;;;;12.95;10.70;;;16.10;99.90;;;;;;5169897;27;20122;-70
2022/09/12 00:21:03;;;;;;;12.80;10.90;;;16.20;99.90;;;;;;5174453;27;20058;-71
2022/09/12 00:23:30;;;;;;;14.20;10.75;;;16.10;99.90;;;;;;5120722;27;20475;-70
2022/09/12 00:25:55;;;;;;;12.35;11.05;;;16.00;99.90;;;;;;5143766;27;20439;-69
2022/09/12 00:28:21;;;;;;;12.10;10.63;;;16.00;99.90;;;;;;5156701;27;20151;-70
2022/09/12 00:30:48;;;;;;;13.70;11.13;;;16.00;99.90;;;;;;5175233;27;20147;-70
2022/09/12 00:33:15;;;;;;;13.13;11.15;;;16.00;99.90;;;;;;5160748;27;20042;-70
2022/09/12 00:35:54;;;;;;;13.43;10.07;;;16.00;99.90;;;;;;5166973;27;20039;-70
2022/09/12 00:38:20;;;;;;;14.82;11.45;;;15.90;99.90;;;;;;5120403;27;20035;-70
2022/09/12 00:40:47;;;;;;;12.93;11.07;;;16.00;99.90;;;;;;5117680;27;20050;-70
2022/09/12 00:43:26;;;;;;;12.82;11.25;;;16.00;99.90;;;;;;5146798;27;20054;-71
2022/09/12 00:45:53;;;;;;;12.55;11.23;;;16.00;99.90;;;;;;5142977;27;20091;-70
2022/09/12 00:48:25;;;;;;;12.90;11.38;;;16.00;99.90;;;;;;5159924;27;20047;-70
2022/09/12 00:50:50;;;;;;;12.40;10.98;;;16.00;99.90;;;;;;5146547;27;20050;-70
2022/09/12 00:53:17;;;;;;;12.50;11.20;;;16.00;99.90;;;;;;5139093;27;20416;-71
2022/09/12 00:55:48;;;;;;;15.80;12.00;;;16.00;99.90;;;;;;5155193;27;20091;-70
2022/09/12 00:58:19;;;;;;;13.27;11.88;;;16.30;99.90;;;;;;5166984;27;20030;-70
2022/09/12 01:00:46;;;;;;;12.90;11.35;;;15.90;99.90;;;;;;5141513;27;20443;-70
2022/09/12 01:03:15;;;;;;;14.90;13.07;;;15.90;99.90;;;;;;5174491;27;20042;-70
2022/09/12 01:05:52;;;;;;;13.82;12.23;;;15.90;99.90;;;;;;5142101;27;20041;-70
2022/09/12 01:08:19;;;;;;;12.52;11.23;;;15.90;99.90;;;;;;5175203;27;20050;-70
2022/09/12 01:10:45;;;;;;;13.50;12.10;;;15.90;99.90;;;;;;5155235;27;20063;-70
2022/09/12 01:13:12;;;;;;;13.63;12.23;;;15.90;99.90;;;;;;5151065;27;20137;-70
2022/09/12 01:15:38;;;;;;;15.38;13.13;;;15.80;99.90;;;;;;5155613;27;20053;-70
2022/09/12 01:18:20;;;;;;;15.15;13.02;;;15.80;99.90;;;;;;5154853;27;20102;-71
2022/09/12 01:20:52;;;;;;;14.35;12.85;;;15.90;99.90;;;;;;5139812;27;20038;-70
2022/09/12 01:23:33;;;;;;;15.18;13.45;;;15.80;99.90;;;;;;5161709;27;20038;-70
2022/09/12 01:26:11;;;;;;;15.57;13.70;;;15.80;99.90;;;;;;5134013;27;20060;-70
2022/09/12 01:28:45;;;;;;;14.75;13.35;;;15.80;99.90;;;;;;5138700;27;20051;-70
2022/09/12 01:31:18;;;;;;;14.75;13.18;;;15.70;99.90;;;;;;5137545;27;20089;-70
2022/09/12 01:34:11;;;;;;;14.85;13.32;;;15.60;99.90;;;;;;5125762;27;20043;-70
2022/09/12 01:36:47;;;;;;;15.50;13.90;;;15.70;99.90;;;;;;5157744;27;20414;-70
2022/09/12 01:39:24;;;;;;;15.73;14.07;;;15.60;99.90;;;;;;5137675;27;20050;-70
2022/09/12 01:42:09;;;;;;;15.05;13.45;;;15.60;99.90;;;;;;5153868;27;20047;-70
2022/09/12 01:44:38;;;;;;;15.38;13.50;;;15.50;99.90;;;;;;5155424;27;20540;-70
2022/09/12 01:47:07;;;;;;;15.52;13.48;;;15.50;99.90;;;;;;5154362;27;20458;-70
2022/09/12 01:49:52;;;;;;;15.30;13.73;;;15.50;99.90;;;;;;5138034;27;20047;-70
2022/09/12 01:52:27;;;;;;;15.55;13.95;;;15.50;99.90;;;;;;5171024;27;20066;-70
2022/09/12 01:54:55;;;;;;;17.13;15.35;;;15.50;99.90;;;;;;5155783;27;20043;-70
2022/09/12 01:57:31;;;;;;;15.80;14.20;;;15.70;99.90;;;;;;5154139;27;20554;-70
2022/09/12 02:00:03;;;;;;;17.90;15.40;;;15.50;99.90;;;;;;5168561;27;20124;-70
2022/09/12 02:02:36;;;;;;;17.23;15.43;;;15.50;99.90;;;;;;5143517;27;20034;-70
2022/09/12 02:05:08;;;;;;;17.30;15.23;;;15.40;99.90;;;;;;5173268;27;20054;-70
2022/09/12 02:07:48;;;;;;;18.73;15.48;;;15.40;99.90;;;;;;5154007;27;20042;-70
2022/09/12 02:10:27;;;;;;;18.20;16.23;;;15.30;99.90;;;;;;5130125;27;20050;-70
2022/09/12 02:13:06;;;;;;;18.35;16.30;;;15.30;99.90;;;;;;5153972;27;20137;-70
2022/09/12 02:16:02;;;;;;;18.33;15.60;;;15.30;99.90;;;;;;5163471;27;20041;-70
2022/09/12 02:18:31;;;;;;;18.23;16.27;;;15.30;99.90;;;;;;5156346;27;20355;-70
2022/09/12 02:20:59;;;;;;;18.63;16.70;;;15.40;99.90;;;;;;5160606;27;20079;-70
2022/09/12 02:23:27;;;;;;;21.95;16.90;;;15.30;99.90;;;;;;5145454;27;20380;-70
2022/09/12 02:26:02;;;;;;;19.13;16.90;;;15.30;99.90;;;;;;5167648;27;20042;-70
2022/09/12 02:28:32;;;;;;;18.42;16.58;;;15.30;99.90;;;;;;5167050;27;20046;-70
2022/09/12 02:31:41;;;;;;;22.50;17.80;;;15.30;99.90;;;;;;5138528;27;20038;-70
2022/09/12 02:34:32;;;;;;;19.30;17.38;;;15.20;99.90;;;;;;5162577;27;20047;-70
2022/09/12 02:37:04;;;;;;;19.17;16.65;;;15.20;99.90;;;;;;5134294;27;20095;-68
2022/09/12 02:39:31;;;;;;;21.63;17.90;;;15.20;99.90;;;;;;5170706;27;20509;-68
2022/09/12 02:41:59;;;;;;;19.35;17.33;;;15.20;99.90;;;;;;5138478;27;20050;-68
2022/09/12 02:44:27;;;;;;;19.75;17.48;;;15.20;99.90;;;;;;5162937;27;20046;-68
2022/09/12 02:47:10;;;;;;;21.65;17.88;;;15.10;99.90;;;;;;5156558;27;20061;-68
2022/09/12 02:49:36;;;;;;;20.20;18.17;;;15.10;99.90;;;;;;5170213;27;20175;-68
2022/09/12 02:52:01;;;;;;;19.55;17.48;;;15.20;99.90;;;;;;5163574;27;20078;-69
2022/09/12 02:54:28;;;;;;;20.95;18.75;;;15.00;99.90;;;;;;5158213;27;20374;-68
2022/09/12 02:56:53;;;;;;;21.15;18.42;;;15.10;99.90;;;;;;5161599;27;20037;-69
2022/09/12 02:59:21;;;;;;;21.33;19.13;;;15.00;99.90;;;;;;5160784;27;20042;-68
2022/09/12 03:01:52;;;;;;;21.05;18.77;;;15.00;99.90;;;;;;5171818;27;20043;-68
2022/09/12 03:04:44;;;;;;;20.02;17.92;;;15.00;99.90;;;;;;5144106;27;20402;-68
2022/09/12 03:07:24;;;;;;;21.23;18.67;;;14.90;99.90;;;;;;5175047;27;20038;-68
2022/09/12 03:10:11;;;;;;;24.92;19.60;;;15.10;99.90;;;;;;5164560;27;20046;-68
2022/09/12 03:12:42;;;;;;;21.65;19.42;;;15.10;99.90;;;;;;5136658;27;20050;-68
2022/09/12 03:15:20;;;;;;;21.15;18.90;;;15.00;99.90;;;;;;5167814;27;20053;-68
2022/09/12 03:18:05;;;;;;;23.55;19.70;;;15.10;99.90;;;;;;5119464;27;20051;-69
2022/09/12 03:20:43;;;;;;;21.42;19.23;;;15.00;99.90;;;;;;5177219;27;20042;-69
2022/09/12 03:23:24;;;;;;;22.27;19.67;;;15.00;99.90;;;;;;5155380;27;20050;-69
2022/09/12 03:26:04;;;;;;;23.20;20.73;;;15.00;99.90;;;;;;5162741;27;20039;-68
2022/09/12 03:28:33;;;;;;;23.15;19.55;;;14.90;99.90;;;;;;5160475;27;20431;-68
2022/09/12 03:30:59;;;;;;;22.95;19.85;;;14.90;99.90;;;;;;5177765;27;20046;-69
2022/09/12 03:33:25;;;;;;;22.00;19.42;;;14.90;99.90;;;;;;5172037;27;20047;-68
2022/09/12 03:35:52;;;;;;;22.10;19.67;;;14.80;99.90;;;;;;5160537;27;20482;-68
2022/09/12 03:38:18;;;;;;;25.00;20.27;;;15.20;99.90;;;;;;5165753;27;20114;-68
2022/09/12 03:40:45;;;;;;;23.58;20.23;;;14.90;99.90;;;;;;5141808;27;20054;-68
2022/09/12 03:43:11;;;;;;;23.80;20.48;;;14.90;99.90;;;;;;5157960;27;20045;-68
2022/09/12 03:45:37;;;;;;;23.50;20.65;;;15.30;99.90;;;;;;5154510;27;20133;-68
2022/09/12 03:48:04;;;;;;;25.17;21.17;;;14.90;99.90;;;;;;5138689;27;20051;-69
2022/09/12 03:50:30;;;;;;;24.63;21.48;;;15.40;99.90;;;;;;5166962;27;20042;-68
2022/09/12 03:52:58;;;;;;;23.70;20.48;;;14.90;99.90;;;;;;5157477;27;20126;-69
2022/09/12 03:55:25;;;;;;;24.38;21.55;;;14.90;99.90;;;;;;5160804;27;20125;-69
2022/09/12 03:57:54;;;;;;;26.55;20.80;;;14.90;99.90;;;;;;5168622;27;20035;-69
2022/09/12 04:00:20;;;;;;;24.98;20.30;;;14.90;99.90;;;;;;5167147;27;20145;-69
2022/09/12 04:02:46;;;;;;;26.90;21.08;;;14.90;99.90;;;;;;5143525;27;20152;-68
2022/09/12 04:05:11;;;;;;;26.30;21.70;;;14.90;99.90;;;;;;5160592;27;20038;-68
2022/09/12 04:07:37;;;;;;;24.88;21.70;;;14.90;99.90;;;;;;5138492;27;20095;-69
2022/09/12 04:10:04;;;;;;;27.65;21.77;;;14.90;99.90;;;;;;5157353;27;20039;-68
2022/09/12 04:12:29;;;;;;;25.50;22.10;;;14.90;99.90;;;;;;5163476;27;20127;-69
2022/09/12 04:14:55;;;;;;;28.02;22.73;;;15.90;99.90;;;;;;5144081;27;20463;-69
2022/09/12 04:17:20;;;;;;;25.90;21.35;;;14.90;99.90;;;;;;5165429;27;20039;-68
2022/09/12 04:19:46;;;;;;;28.60;22.20;;;14.90;99.90;;;;;;5171200;27;20050;-68
2022/09/12 04:22:11;;;;;;;27.08;22.27;;;15.00;99.90;;;;;;5147056;27;20046;-69
2022/09/12 04:24:37;;;;;;;27.85;22.60;;;15.00;99.90;;;;;;5148860;27;20054;-69
2022/09/12 04:27:03;;;;;;;29.38;22.60;;;15.10;99.90;;;;;;5159709;27;20447;-69
2022/09/12 04:29:30;;;;;;;26.77;22.27;;;15.00;99.90;;;;;;5171777;27;20051;-69
2022/09/12 04:31:55;;;;;;;25.13;21.38;;;15.00;99.90;;;;;;5155902;27;20659;-69
2022/09/12 04:34:22;;;;;;;28.15;21.75;;;15.10;99.90;;;;;;5160523;27;20134;-68
2022/09/12 04:36:47;;;;;;;28.98;22.70;;;15.40;99.90;;;;;;5146109;27;20095;-69
2022/09/12 04:39:13;;;;;;;30.20;23.48;;;15.10;99.90;;;;;;5162160;27;20054;-69
2022/09/12 04:41:40;;;;;;;31.38;23.88;;;15.10;99.90;;;;;;5170720;27;20041;-68
2022/09/12 04:44:10;;;;;;;30.10;22.70;;;15.10;99.90;;;;;;5167722;27;20074;-69
2022/09/12 04:46:39;;;;;;;29.25;23.00;;;15.30;99.90;;;;;;5162719;27;20117;-69
2022/09/12 04:49:05;;;;;;;30.85;22.95;;;15.10;99.90;;;;;;5160443;27;20231;-68
2022/09/12 04:51:36;;;;;;;31.25;23.80;;;15.70;99.90;;;;;;5162261;27;20067;-68
2022/09/12 04:54:12;;;;;;;29.58;23.00;;;15.30;99.90;;;;;;5174539;27;20064;-69
2022/09/12 04:56:39;;;;;;;28.13;22.95;;;15.10;99.90;;;;;;5175562;27;20044;-69
2022/09/12 04:59:05;;;;;;;29.63;24.02;;;15.10;99.90;;;;;;5167948;27;20405;-69
2022/09/12 05:01:31;;;;;;;30.00;22.48;;;15.60;99.90;;;;;;5143290;27;20460;-69
2022/09/12 05:03:58;;;;;;;29.85;22.52;;;15.20;99.90;;;;;;5166179;27;20121;-69
2022/09/12 05:06:27;;;;;;;27.55;22.02;;;15.20;99.90;;;;;;5154755;27;20050;-69
2022/09/12 05:08:54;;;;;;;26.77;21.23;;;15.30;99.90;;;;;;5155841;27;20070;-69
2022/09/12 05:11:23;;;;;;;26.98;21.98;;;15.20;99.90;;;;;;5151809;27;20526;-69
2022/09/12 05:13:49;;;;;;;26.58;21.45;;;15.20;99.90;;;;;;5157768;27;20119;-69
2022/09/12 05:16:16;;;;;;;27.52;22.13;;;15.30;99.90;;;;;;5167676;27;20039;-69
2022/09/12 05:18:43;;;;;;;27.95;21.50;;;15.30;99.90;;;;;;5173944;27;20095;-69
2022/09/12 05:21:12;;;;;;;29.80;22.23;;;15.30;99.90;;;;;;5174909;27;20523;-69
2022/09/12 05:23:37;;;;;;;27.30;21.15;;;15.30;99.90;;;;;;5156387;27;20382;-69
2022/09/12 05:26:05;;;;;;;28.83;22.10;;;15.30;99.90;;;;;;5169867;27;20035;-69
2022/09/12 05:28:36;;;;;;;28.33;21.15;;;15.40;99.90;;;;;;5155113;27;20437;-69
2022/09/12 05:31:06;;;;;;;31.30;21.35;;;15.40;99.90;;;;;;5173912;27;20074;-69
2022/09/12 05:33:33;;;;;;;28.30;22.00;;;15.40;99.90;;;;;;5160359;27;20051;-69
2022/09/12 05:36:00;;;;;;;30.58;22.45;;;15.50;99.90;;;;;;5156022;27;20402;-69
2022/09/12 05:38:27;;;;;;;26.35;21.42;;;16.20;99.90;;;;;;5173100;27;20052;-69
2022/09/12 05:41:02;;;;;;;28.08;20.85;;;15.40;99.90;;;;;;5165294;27;20042;-69
2022/09/12 05:43:28;;;;;;;27.10;21.02;;;15.40;99.90;;;;;;5138603;27;20042;-69
2022/09/12 05:46:03;;;;;;;27.42;20.45;;;15.40;99.90;;;;;;5162197;27;20046;-69
2022/09/12 05:48:29;;;;;;;25.35;20.33;;;15.50;99.90;;;;;;5136460;27;20059;-69
2022/09/12 05:51:02;;;;;;;28.05;20.38;;;15.50;99.90;;;;;;5135758;27;20043;-69
2022/09/12 05:53:29;;;;;;;29.40;21.25;;;15.60;99.90;;;;;;5154746;27;20042;-69
2022/09/12 05:56:07;;;;;;;26.90;20.83;;;15.50;99.90;;;;;;5165520;27;20454;-69
2022/09/12 05:58:38;;;;;;;26.52;21.48;;;15.50;99.90;;;;;;5169204;27;20038;-69
2022/09/12 06:01:07;;;;;;;26.92;20.85;;;15.60;99.90;;;;;;5173930;27;20316;-69
2022/09/12 06:03:34;;;;;;;26.92;21.23;;;16.00;99.90;;;;;;5152205;27;20050;-69
2022/09/12 06:06:04;;;;;;;26.80;21.40;;;15.60;99.90;;;;;;5172363;27;20117;-69
2022/09/12 06:08:35;;;;;;;29.88;21.88;;;15.60;99.90;;;;;;5155423;27;20566;-69
2022/09/12 06:11:05;;;;;;;31.42;21.83;;;15.60;99.90;;;;;;5174114;27;20059;-72
2022/09/12 06:13:36;;;;;;;30.27;22.42;;;15.70;99.90;;;;;;5172324;27;20125;-69
2022/09/12 06:16:07;;;;;;;30.85;22.50;;;16.10;99.90;;;;;;5173629;27;20034;-69
2022/09/12 06:18:34;;;;;;;30.73;22.95;;;15.70;99.90;;;;;;5174032;27;20053;-69
2022/09/12 06:21:10;;;;;;;32.17;24.42;;;15.80;99.90;;;;;;5160707;27;20054;-69
2022/09/12 06:23:37;;;;;;;34.25;24.42;;;15.80;99.90;;;;;;5136888;27;20047;-69
2022/09/12 06:26:03;;;;;;;31.70;24.20;;;16.30;99.90;;;;;;5136484;27;20140;-69
2022/09/12 06:28:29;;;;;;;34.67;25.48;;;15.90;99.90;;;;;;5149814;27;20462;-69
2022/09/12 06:31:03;;;;;;;34.78;25.45;;;16.10;99.90;;;;;;5140650;27;20385;-69
2022/09/12 06:33:30;;;;;;;34.58;25.08;;;15.90;99.90;;;;;;5136964;27;20043;-69
2022/09/12 06:36:05;;;;;;;35.15;25.90;;;16.00;99.90;;;;;;5141128;27;20506;-69
2022/09/12 06:38:31;;;;;;;33.25;25.20;;;16.00;99.90;;;;;;5155045;27;20050;-69
2022/09/12 06:40:58;;;;;;;34.95;26.17;;;16.10;99.90;;;;;;5177730;27;20043;-70
2022/09/12 06:43:24;;;;;;;38.38;26.58;;;16.10;99.90;;;;;;5143052;27;20070;-71
2022/09/12 06:45:50;;;;;;;36.92;26.65;;;16.10;99.90;;;;;;5157015;27;20114;-71
2022/09/12 06:48:15;;;;;;;40.90;26.70;;;16.10;99.90;;;;;;5157259;27;20049;-71
2022/09/12 06:50:41;;;;;;;42.90;29.60;;;16.30;99.90;;;;;;5137970;27;20087;-71
2022/09/12 06:53:07;;;;;;;37.92;27.55;;;16.10;99.90;;;;;;5143643;27;20061;-71
2022/09/12 06:55:33;;;;;;;40.33;27.40;;;16.10;99.90;;;;;;5134351;27;20103;-69
2022/09/12 06:57:59;;;;;;;39.97;28.10;;;16.10;99.90;;;;;;5134791;27;20043;-69
2022/09/12 07:00:24;;;;;;;38.58;27.02;;;16.60;99.90;;;;;;5144636;27;20050;-70
2022/09/12 07:02:55;;;;;;;38.70;26.95;;;16.20;99.90;;;;;;5156613;27;20043;-69
2022/09/12 07:05:21;;;;;;;41.60;28.48;;;16.30;99.90;;;;;;5156976;27;20822;-70
2022/09/12 07:07:47;;;;;;;39.80;28.25;;;16.20;99.90;;;;;;5157188;27;20040;-70
2022/09/12 07:10:13;;;;;;;45.35;29.42;;;16.20;99.90;;;;;;5156946;27;20118;-70
2022/09/12 07:12:39;;;;;;;41.42;28.63;;;16.20;99.90;;;;;;5155745;27;20035;-70
2022/09/12 07:15:05;;;;;;;40.63;27.85;;;16.30;99.90;;;;;;5156601;27;20058;-70
2022/09/12 07:17:30;;;;;;;45.92;28.75;;;16.30;99.90;;;;;;5163101;27;20042;-70
2022/09/12 07:19:56;;;;;;;42.35;29.02;;;16.30;99.90;;;;;;5158128;27;20049;-70
2022/09/12 07:22:22;;;;;;;46.22;30.55;;;16.40;99.90;;;;;;5177559;27;20498;-70
2022/09/12 07:24:47;;;;;;;44.50;29.90;;;16.40;99.90;;;;;;5132867;27;20368;-71
2022/09/12 07:27:13;;;;;;;46.17;30.33;;;16.40;99.90;;;;;;5137779;27;20122;-70
2022/09/12 07:29:39;;;;;;;43.88;29.40;;;16.80;99.90;;;;;;5150827;27;20047;-71
2022/09/12 07:32:05;;;;;;;44.60;30.15;;;16.60;99.90;;;;;;5134850;27;20126;-72
2022/09/12 07:34:31;;;;;;;45.78;29.98;;;16.60;99.90;;;;;;5138494;27;20150;-70
2022/09/12 07:36:57;;;;;;;47.55;30.35;;;16.60;99.90;;;;;;5170202;27;20078;-71
2022/09/12 07:39:23;;;;;;;45.13;31.58;;;16.70;99.90;;;;;;5162659;27;20456;-70
2022/09/12 07:41:48;;;;;;;41.85;31.05;;;16.90;99.90;;;;;;5167388;27;20114;-69
2022/09/12 07:44:14;;;;;;;42.47;30.05;;;17.00;99.90;;;;;;5155145;27;20066;-69
2022/09/12 07:46:43;;;;;;;47.03;30.98;;;16.80;99.90;;;;;;5145471;27;20035;-72
2022/09/12 07:49:10;;;;;;;49.50;30.75;;;16.80;99.90;;;;;;5156219;27;20143;-69
2022/09/12 07:51:36;;;;;;;49.47;30.90;;;16.90;99.90;;;;;;5154566;27;20043;-72
2022/09/12 07:54:06;;;;;;;49.60;31.45;;;17.00;99.90;;;;;;5156840;27;20516;-69
2022/09/12 07:56:32;;;;;;;41.65;30.23;;;17.00;99.90;;;;;;5176338;27;20198;-69
2022/09/12 07:58:58;;;;;;;47.47;31.10;;;17.00;99.90;;;;;;5176474;27;20555;-69
2022/09/12 08:01:25;;;;;;;46.65;31.60;;;17.00;99.90;;;;;;5157618;27;20046;-70
2022/09/12 08:03:58;;;;;;;49.20;31.38;;;17.00;99.90;;;;;;5176678;27;20034;-69
2022/09/12 08:06:26;;;;;;;51.55;32.17;;;17.00;99.90;;;;;;5176036;27;20050;-69
2022/09/12 08:08:54;;;;;;;48.75;31.20;;;17.10;99.90;;;;;;5175356;27;20462;-69
2022/09/12 08:11:21;;;;;;;44.60;31.45;;;17.10;99.90;;;;;;5176003;27;20042;-69
2022/09/12 08:13:48;;;;;;;47.22;30.60;;;17.20;99.90;;;;;;5175659;27;20045;-68
2022/09/12 08:16:16;;;;;;;49.28;31.00;;;17.20;99.90;;;;;;5154940;27;20042;-70
2022/09/12 08:18:43;;;;;;;46.83;29.58;;;17.20;99.90;;;;;;5150744;27;20055;-70
2022/09/12 08:21:20;;;;;;;51.15;30.70;;;17.20;99.90;;;;;;5147326;27;20363;-70
2022/09/12 08:23:46;;;;;;;43.83;30.33;;;17.30;99.90;;;;;;5143168;27;20125;-70
2022/09/12 08:26:12;;;;;;;47.83;30.42;;;17.40;99.90;;;;;;5155266;27;20047;-70
2022/09/12 08:28:42;;;;;;;49.92;30.98;;;17.30;99.90;;;;;;5154163;27;20039;-70
2022/09/12 08:31:12;;;;;;;50.75;31.13;;;17.80;99.90;;;;;;5153389;27;20391;-70
2022/09/12 08:33:38;;;;;;;45.13;29.95;;;17.40;99.90;;;;;;5154171;27;20051;-70
2022/09/12 08:36:08;;;;;;;45.05;30.52;;;17.40;99.90;;;;;;5167389;27;20038;-69
2022/09/12 08:38:35;;;;;;;43.88;29.95;;;17.50;99.90;;;;;;5175952;27;20079;-69
2022/09/12 08:41:17;;;;;;;48.30;30.27;;;17.60;99.90;;;;;;5171746;27;20050;-69
2022/09/12 08:44:05;;;;;;;43.65;29.00;;;17.60;99.90;;;;;;5135343;27;20365;-69
2022/09/12 08:46:38;;;;;;;41.05;28.17;;;17.70;99.90;;;;;;5135232;27;20046;-69
2022/09/12 08:49:07;;;;;;;41.25;28.48;;;17.80;99.90;;;;;;5153989;27;20569;-69
2022/09/12 08:51:34;;;;;;;41.80;27.55;;;17.90;99.90;;;;;;5154379;27;20097;-69
2022/09/12 08:54:01;;;;;;;41.70;27.90;;;18.00;99.90;;;;;;5154565;27;20049;-69
2022/09/12 08:56:30;;;;;;;41.03;27.55;;;18.00;99.90;;;;;;5155370;27;20409;-69
2022/09/12 08:58:56;;;;;;;40.65;26.83;;;18.10;99.90;;;;;;5154993;27;20069;-69
2022/09/12 09:01:40;;;;;;;39.35;27.85;;;18.10;99.90;;;;;;5156457;27;20471;-69
2022/09/12 09:04:16;;;;;;;39.22;26.85;;;18.20;99.90;;;;;;5167250;27;20074;-69
2022/09/12 09:07:09;;;;;;;38.45;26.10;;;18.20;99.90;;;;;;5153932;27;20500;-69
2022/09/12 09:09:53;;;;;;;37.92;25.98;;;18.30;99.90;;;;;;5157757;27;20038;-69
2022/09/12 09:12:34;;;;;;;40.92;26.77;;;18.30;99.90;;;;;;5132356;27;20100;-69
2022/09/12 09:15:28;;;;;;;41.13;26.80;;;18.40;99.90;;;;;;5165107;27;20063;-68
2022/09/12 09:18:05;;;;;;;39.80;26.08;;;18.50;99.90;;;;;;5128669;27;20061;-69
2022/09/12 09:20:47;;;;;;;38.83;26.75;;;18.60;99.90;;;;;;5154922;27;20086;-69
2022/09/12 09:23:20;;;;;;;37.83;25.45;;;18.70;99.90;;;;;;5155025;27;20043;-69
2022/09/12 09:25:56;;;;;;;41.53;26.08;;;18.90;99.90;;;;;;5154918;27;20050;-69
2022/09/12 09:28:47;;;;;;;38.25;24.95;;;19.20;99.90;;;;;;5145518;27;20393;-68
2022/09/12 09:31:19;;;;;;;38.72;25.63;;;19.40;99.90;;;;;;5137882;27;20404;-69
2022/09/12 09:33:54;;;;;;;37.40;24.77;;;19.50;99.90;;;;;;5146221;27;20115;-69
2022/09/12 09:36:31;;;;;;;37.30;23.83;;;19.70;99.90;;;;;;5170219;27;20038;-69
2022/09/12 09:39:15;;;;;;;37.90;23.50;;;19.70;99.90;;;;;;5173518;27;20056;-69
2022/09/12 09:41:51;;;;;;;35.70;23.75;;;19.90;99.90;;;;;;5155667;27;20034;-69
2022/09/12 09:44:17;;;;;;;36.28;23.38;;;20.10;99.90;;;;;;5154029;27;20042;-69
2022/09/12 09:46:43;;;;;;;34.38;22.77;;;20.40;99.90;;;;;;5135487;27;20368;-69
2022/09/12 09:49:13;;;;;;;35.45;23.25;;;20.60;99.90;;;;;;5137622;27;20035;-69
2022/09/12 09:51:41;;;;;;;33.75;23.05;;;20.90;99.90;;;;;;5156027;27;20117;-69
2022/09/12 09:54:19;;;;;;;33.25;22.17;;;21.20;99.90;;;;;;5121526;27;20058;-75
2022/09/12 09:56:45;;;;;;;36.28;22.67;;;21.50;99.90;;;;;;5169019;27;20092;-75
2022/09/12 09:59:14;;;;;;;32.75;21.75;;;21.80;99.90;;;;;;5170784;27;20410;-75
2022/09/12 10:01:44;;;;;;;31.88;22.27;;;22.20;99.90;;;;;;5142636;27;20035;-75
2022/09/12 10:04:20;;;;;;;33.65;21.73;;;22.50;99.90;;;;;;5149881;27;20054;-75
2022/09/12 10:06:46;;;;;;;31.05;21.23;;;22.80;99.90;;;;;;5145214;27;20536;-75
2022/09/12 10:09:20;;;;;;;31.77;21.23;;;23.20;99.90;;;;;;5132059;27;20047;-75
2022/09/12 10:11:47;;;;;;;31.15;20.77;;;23.50;99.90;;;;;;5144927;27;20095;-79
2022/09/12 10:14:35;;;;;;;34.03;22.08;;;23.90;99.90;;;;;;5171112;27;20138;-80
2022/09/12 10:17:21;;;;;;;33.88;21.73;;;24.10;99.90;;;;;;5171102;27;20155;-79
2022/09/12 10:19:46;;;;;;;;;;;24.20;99.90;;;;;;5146908;27;20430;-80
2022/09/12 10:22:18;;;;;;;33.25;21.75;;;24.50;99.90;;;;;;5148435;27;19930;-79
2022/09/12 10:24:51;;;;;;;33.80;23.38;;;24.20;99.90;;;;;;5164537;27;20038;-74
2022/09/12 10:27:23;;;;;;;31.65;20.63;;;24.00;99.90;;;;;;5173261;27;20064;-74
2022/09/12 10:30:02;;;;;;;32.17;22.02;;;23.90;99.90;;;;;;5171823;27;20134;-76
2022/09/12 10:32:38;;;;;;;33.40;20.90;;;23.90;99.90;;;;;;5171484;27;20050;-76
2022/09/12 10:35:14;;;;;;;29.65;21.25;;;24.10;99.90;;;;;;5151993;27;20444;-76
2022/09/12 10:37:48;;;;;;;28.58;17.83;;;24.30;99.90;;;;;;5125206;27;20058;-76
2022/09/12 10:40:31;;;;;;;26.38;18.20;;;24.40;99.90;;;;;;5151792;27;20175;-77
2022/09/12 10:43:01;;;;;;;25.90;18.02;;;24.70;99.90;;;;;;5152742;27;20436;-76
2022/09/12 10:45:36;;;;;;;25.33;16.73;;;24.90;99.90;;;;;;5134320;27;20054;-76
2022/09/12 10:48:23;;;;;;;27.98;16.83;;;25.30;99.90;;;;;;5153043;27;20050;-71
2022/09/12 10:50:50;;;;;;;22.40;14.70;;;25.40;99.90;;;;;;5134491;27;20110;-72
2022/09/12 10:53:42;;;;;;;21.48;14.73;;;25.60;99.90;;;;;;5134434;27;20191;-71
2022/09/12 10:56:17;;;;;;;21.33;14.25;;;25.60;99.90;;;;;;5152880;27;20085;-72
2022/09/12 10:58:52;;;;;;;23.38;16.20;;;25.60;99.90;;;;;;5153520;27;20047;-72
2022/09/12 11:01:27;;;;;;;23.98;15.85;;;25.60;99.90;;;;;;5153122;27;20387;-72
2022/09/12 11:04:15;;;;;;;24.40;15.45;;;25.50;99.90;;;;;;5153370;27;20042;-72
2022/09/12 11:06:43;;;;;;;27.73;15.70;;;25.50;99.90;;;;;;5133386;27;20035;-72
2022/09/12 11:09:16;;;;;;;27.00;17.05;;;25.50;99.90;;;;;;5136145;27;20433;-72
2022/09/12 11:12:08;;;;;;;27.95;16.77;;;25.60;99.90;;;;;;5134700;27;20387;-72
2022/09/12 11:15:06;;;;;;;25.73;17.73;;;25.80;99.90;;;;;;5111073;27;20446;-72
2022/09/12 11:17:59;;;;;;;25.35;16.83;;;26.10;99.90;;;;;;5135869;27;20039;-72
2022/09/12 11:20:31;;;;;;;22.65;15.85;;;26.30;99.90;;;;;;5134143;27;20510;-72
2022/09/12 11:23:15;;;;;;;24.50;16.13;;;26.50;99.90;;;;;;5117462;27;20142;-72
2022/09/12 11:25:56;;;;;;;25.52;17.63;;;26.60;99.90;;;;;;5135994;27;20046;-72
2022/09/12 11:28:33;;;;;;;25.95;16.83;;;26.70;99.90;;;;;;5117203;27;20035;-72
2022/09/12 11:31:22;;;;;;;27.95;15.43;;;26.80;99.90;;;;;;5134926;27;20475;-72
2022/09/12 11:33:50;;;;;;;20.60;13.45;;;26.80;99.90;;;;;;5135933;27;20376;-72
2022/09/12 11:37:04;;;;;;;17.70;12.40;;;26.90;99.20;;;;;;5135361;27;20058;-72
2022/09/12 11:39:38;;;;;;;17.88;11.85;;;27.10;98.90;;;;;;5135596;27;20043;-72
2022/09/12 11:42:11;;;;;;;19.48;12.45;;;27.20;98.40;;;;;;5135377;27;20050;-72
2022/09/12 11:44:41;;;;;;;16.15;11.18;;;27.40;98.30;;;;;;5153061;27;20364;-72
2022/09/12 11:47:11;;;;;;;18.67;11.82;;;27.40;98.00;;;;;;5154050;27;20042;-72
2022/09/12 11:49:46;;;;;;;17.25;12.13;;;27.40;97.70;;;;;;5136407;27;20047;-72
2022/09/12 11:52:17;;;;;;;14.45;11.05;;;27.40;98.10;;;;;;5155795;27;20073;-72
2022/09/12 11:54:43;;;;;;;12.98;8.75;;;27.70;97.90;;;;;;5145661;27;20112;-72
2022/09/12 11:57:32;;;;;;;10.35;7.53;;;27.80;97.00;;;;;;5116869;27;20054;-72
2022/09/12 12:00:04;;;;;;;10.02;6.93;;;27.90;96.40;;;;;;5135568;27;20043;-72
2022/09/12 12:02:38;;;;;;;11.38;6.72;;;28.00;95.90;;;;;;5135063;27;20474;-72
2022/09/12 12:05:22;;;;;;;10.80;7.32;;;28.10;95.70;;;;;;5134806;27;20134;-72
2022/09/12 12:07:57;;;;;;;9.93;6.80;;;28.30;95.70;;;;;;5134756;27;20073;-73
2022/09/12 12:10:36;;;;;;;11.45;8.52;;;28.40;95.60;;;;;;5116684;27;20054;-72
2022/09/12 12:13:16;;;;;;;11.23;7.82;;;28.60;95.00;;;;;;5116885;27;20429;-71
2022/09/12 12:16:11;;;;;;;10.77;7.18;;;28.70;94.90;;;;;;5134255;27;20047;-72
2022/09/12 12:18:38;;;;;;;14.98;8.57;;;28.50;94.60;;;;;;5134247;27;20447;-73
2022/09/12 12:21:38;;;;;;;15.23;8.23;;;28.20;94.80;;;;;;5155417;27;20043;-72
2022/09/12 12:24:06;;;;;;;17.27;8.82;;;27.90;95.30;;;;;;5155349;27;20054;-72
2022/09/12 12:26:59;;;;;;;10.38;7.32;;;28.30;95.20;;;;;;5154832;27;20047;-72
2022/09/12 12:29:43;;;;;;;11.52;7.07;;;30.00;94.20;;;;;;5156029;27;20498;-72
2022/09/12 12:32:09;;;;;;;11.57;6.60;;;31.40;93.20;;;;;;5135997;27;20084;-72
2022/09/12 12:34:37;;;;;;;10.82;6.18;;;32.10;91.60;;;;;;5155648;27;20149;-72
2022/09/12 12:37:28;;;;;;;8.88;6.13;;;32.30;91.00;;;;;;5136309;27;20178;-72
2022/09/12 12:40:04;;;;;;;9.60;5.70;;;32.10;91.00;;;;;;5116672;27;20066;-73
2022/09/12 12:42:33;;;;;;;9.63;5.25;;;32.10;90.00;;;;;;5134470;27;20079;-72
2022/09/12 12:45:00;;;;;;;7.43;4.65;;;31.70;89.60;;;;;;5154655;27;20078;-72
2022/09/12 12:47:40;;;;;;;7.68;4.38;;;31.50;89.00;;;;;;5155040;27;20088;-72
2022/09/12 12:50:09;;;;;;;5.95;4.22;;;31.10;88.00;;;;;;5155343;27;20058;-72
2022/09/12 12:52:54;;;;;;;7.57;4.15;;;30.40;87.50;;;;;;5118879;27;20083;-72